-2°C
Woerden, The Nederlands
Taal:  Nederlands
Updated22/01/2019 12:10 
 

Nearby METAR Reports

EHAM - Amsterdam/Schiph, Netherlands
Distance from station: N 27km
Updated: 22/01/2019 11:55
Light snow, Meestal bewolkt
Light snow, Meestal bewolkt
 Wind van Z
Wind: Z 26 km/h
Temperatuur: -1°C
Hitte Index: -7°C
Dauwpunt: -2°C
Vochtigheid: 93%
Barometer: 1003 hPa
Overzicht: Light Snow
Clouds: Meestal bewolkt
Visibility: 2 km
Cloud details: Few Clouds 183 m
Meestal bewolkt 213 m
Meestal bewolkt 335 m
2019/01/22 10:55 EHAM 221055Z 17014KT 2000 -SN FEW006 BKN007 BKN011 M01/M02 Q1003 TEMPO 1200
EHRD - Rotterdam Airpor, Netherlands
Distance from station: WZW 30km
Updated: 22/01/2019 11:55
Light snow, Meestal bewolkt
Light snow, Meestal bewolkt
 Wind van Z
Wind: Z 26 km/h
Temperatuur: -1°C
Hitte Index: -7°C
Dauwpunt: -2°C
Vochtigheid: 93%
Barometer: 1003 hPa
Overzicht: Light Snow
Clouds: Meestal bewolkt
Visibility: 3 km
Cloud details: Few Clouds 213 m
Meestal bewolkt 244 m
Meestal bewolkt 274 m
2019/01/22 10:55 EHRD 221055Z AUTO 19014KT 150V230 2500 -SN FEW007 BKN008 BKN009 M01/M02 Q1003 R24/411591 TEMPO 3000
 
EHGR - Gilze-Rijen Rnla, Netherlands
Distance from station: Z 57km
Updated: 22/01/2019 11:55
Light snow, Meestal bewolkt
Light snow, Meestal bewolkt
 Wind van Z
Wind: Z 26 km/h
Temperatuur: -2°C
Hitte Index: -9°C
Dauwpunt: -3°C
Vochtigheid: 93%
Barometer: 1005 hPa
Overzicht: Light Snow
Clouds: Meestal bewolkt
Visibility: 3 km
Cloud details: Few Clouds 305 m
Meestal bewolkt 762 m
Meestal bewolkt 914 m
2019/01/22 10:55 EHGR 221055Z AUTO 18014KT 140V220 2800 R28/P3000U -SN FEW010 BKN025 BKN030 M02/M03 Q1005 BLACKYLO 17011KT 2000-SN BKN015 OVC019 TEMPO 0700 SN FEW003 BKN005 OVC007
EHDL - Deelen Rnlafb, Netherlands
Distance from station: O 71km
Updated: 22/01/2019 11:55
Zwaar bewolkt
Zwaar bewolkt
 Wind van Z
Wind: Z 26 km/h
Temperatuur: -1°C
Hitte Index: -7°C
Dauwpunt: -6°C
Vochtigheid: 69%
Barometer: 1005 hPa
Clouds: Zwaar bewolkt
Visibility: 10 km
Cloud details: Zwaar bewolkt 853 m
2019/01/22 10:55 EHDL 221055Z AUTO 17014KT 110V220 9999 OVC028 M01/M06 Q1005 BLU
 
EHVK - Volkel Rnlafb, Netherlands
Distance from station: ZO 77km
Updated: 22/01/2019 11:59
Meestal bewolkt
Meestal bewolkt
 Wind van Z
Wind: Z 22 km/h
Temperatuur: -1°C
Hitte Index: -7°C
Dauwpunt: -6°C
Vochtigheid: 69%
Barometer: 1005 hPa
Clouds: Meestal bewolkt
Visibility: 10 km
Cloud details: Meestal bewolkt 579 m
Meestal bewolkt 1158 m
Meestal bewolkt 1433 m
2019/01/22 10:59 EHVK 221059Z AUTO 18012KT 140V230 9999 BKN019 BKN038 BKN047 M01/M06 Q1005 WHT 18011KT CAVOK BECMG 2500 -SN SCT008 BKN012
EHWO - Woensdrecht Rnla, Netherlands
Distance from station: ZZW 78km
Updated: 22/01/2019 12:09
Sneeuw, Meestal bewolkt
Sneeuw, Meestal bewolkt
 Wind van Z
Wind: Z 17 km/h
Temperatuur: -1°C
Hitte Index: -6°C
Dauwpunt: -2°C
Vochtigheid: 93%
Barometer: 1004 hPa
Overzicht: Sneeuw
Clouds: Meestal bewolkt
Visibility: 2 km
Cloud details: Gedeeltelijk bewolkt 183 m
Gedeeltelijk bewolkt 274 m
Meestal bewolkt 366 m
2019/01/22 11:09 EHWO 221109Z AUTO 19009KT 150V230 1600 SN SCT006 SCT009 BKN012 M01/M02 Q1004 YLO
 
EHEH - Eindhoven Rnlafb, Netherlands
Distance from station: ZZO 81km
Updated: 22/01/2019 11:55
Light snow, Zwaar bewolkt
Light snow, Zwaar bewolkt
 Wind van Z
Wind: Z 20 km/h
Temperatuur: -2°C
Hitte Index: -8°C
Dauwpunt: -5°C
Vochtigheid: 80%
Barometer: 1006 hPa
Overzicht: Light Snow
Clouds: Zwaar bewolkt
Visibility: 3 km
Cloud details: Few Clouds 213 m
Meestal bewolkt 488 m
Zwaar bewolkt 610 m
2019/01/22 10:55 EHEH 221055Z AUTO 19011KT 140V220 2600 R21/P3000D -SN FEW007 BKN016 OVC020 M02/M05 Q1006 YLO 18012KT 2000 -SN SCT008 BKN012 OVC018 TEMPO 0700 SN BKN005 OVC008
EHSC - Goeree Le Sea, Netherlands
Distance from station: W 81km
Updated: 22/01/2019 11:55
Mist
Mist
 Wind van ZZW
Wind: ZZW 50 km/h
Temperatuur: 2°C
Hitte Index: -5°C
Dauwpunt: 0°C
Vochtigheid: 87%
Barometer: 1002 hPa
Overzicht: Mist
Visibility: 5 km
2019/01/22 10:55 EHSC 221055Z AUTO 21027KT 5000 BR ///////// 02/00 Q1002 W07/H18